North Conway, New Hampshire
Current Conditions -  °F | °C
As of 8:54 PM on Saturday 25 Oct 2014 (Local Time) from KIZG Reporting Station
Overcast Overcast  
Wind Chill: 12°   Ceiling: 7000
Heat Index: 12°   Visibility: 10mi
Dew Point:   Wind: 5mph
Humidity: 64%   Direction: 250°WSW
Pressure: 29.51"   Gusts: NA
Location:  44.05°N, 71.13°W
Report Text: KIZG 260054Z AUTO 25004KT 10SM OVC070 12/05 A2951 RMK AO2 SLP994 T01170050
Loading
Personal Weather Stations






























Interactive Weather Map New forecast layout! Learn more

10-Day Weather Forecast

Advertisements
Track Severe Weather on mobile